createdAt,value
2022-09-28T00:01:17.180Z,6.89
2022-09-28T00:03:45.067Z,6.88
2022-09-28T00:06:12.638Z,6.88
2022-09-28T00:08:39.211Z,6.87
2022-09-28T00:11:08.362Z,6.88
2022-09-28T00:13:35.103Z,6.94
2022-09-28T00:16:14.747Z,6.94
2022-09-28T00:18:41.716Z,6.95
2022-09-28T00:21:09.977Z,6.94
2022-09-28T00:24:00.181Z,6.95
2022-09-28T00:26:28.510Z,7.01
2022-09-28T00:29:00.967Z,7.00
2022-09-28T00:31:30.488Z,7.01
2022-09-28T00:33:57.228Z,6.99
2022-09-28T00:36:24.415Z,7.06
2022-09-28T00:38:52.005Z,7.11
2022-09-28T00:41:18.352Z,7.18
2022-09-28T00:43:45.003Z,7.23
2022-09-28T00:46:19.781Z,7.26
2022-09-28T00:48:55.365Z,7.29
2022-09-28T00:51:23.124Z,7.27
2022-09-28T00:53:51.068Z,7.33
2022-09-28T00:56:20.220Z,7.40
2022-09-28T00:58:50.481Z,7.38
2022-09-28T01:01:17.501Z,7.43
2022-09-28T01:03:45.543Z,7.48
2022-09-28T01:06:31.348Z,7.56
2022-09-28T01:09:02.867Z,7.49
2022-09-28T01:11:32.692Z,7.54
2022-09-28T01:13:59.852Z,7.51
2022-09-28T01:17:00.611Z,7.55
2022-09-28T01:19:51.284Z,7.53
2022-09-28T01:22:55.128Z,7.54
2022-09-28T01:25:31.602Z,7.54
2022-09-28T01:28:04.629Z,7.56
2022-09-28T01:30:41.638Z,7.57
2022-09-28T01:33:17.455Z,7.60
2022-09-28T01:35:51.720Z,7.62
2022-09-28T01:38:23.186Z,7.62
2022-09-28T01:40:50.933Z,7.64
2022-09-28T01:43:23.663Z,7.65
2022-09-28T01:46:07.273Z,7.66
2022-09-28T01:48:43.478Z,7.66
2022-09-28T01:51:18.052Z,7.71
2022-09-28T01:53:53.171Z,7.73
2022-09-28T01:56:29.109Z,7.76
2022-09-28T01:59:03.140Z,7.76
2022-09-28T02:01:42.991Z,7.72
2022-09-28T02:04:18.236Z,7.74
2022-09-28T02:06:59.112Z,7.77
2022-09-28T02:09:36.164Z,7.82
2022-09-28T02:12:26.258Z,7.79
2022-09-28T02:14:58.475Z,7.79
2022-09-28T02:17:24.991Z,7.80
2022-09-28T02:19:51.593Z,7.81
2022-09-28T02:22:55.655Z,7.79
2022-09-28T02:25:41.023Z,7.77
2022-09-28T02:28:10.903Z,7.80
2022-09-28T02:30:39.370Z,7.80
2022-09-28T02:33:36.417Z,7.82
2022-09-28T02:36:06.168Z,7.83
2022-09-28T02:38:33.116Z,7.87
2022-09-28T02:41:26.607Z,7.87
2022-09-28T02:44:08.649Z,7.87
2022-09-28T02:46:49.010Z,7.90
2022-09-28T02:49:29.466Z,7.84
2022-09-28T02:52:21.496Z,7.91
2022-09-28T02:55:07.266Z,7.92
2022-09-28T02:58:01.392Z,7.94
2022-09-28T03:00:32.248Z,7.93
2022-09-28T03:03:01.407Z,7.95
2022-09-28T03:05:50.095Z,7.97
2022-09-28T03:08:30.077Z,7.98
2022-09-28T03:11:02.897Z,8.01
2022-09-28T03:13:31.319Z,8.03
2022-09-28T03:16:16.087Z,8.05
2022-09-28T03:18:43.399Z,8.01
2022-09-28T03:21:12.316Z,8.01
2022-09-28T03:23:39.458Z,8.01
2022-09-28T03:26:08.309Z,8.03
2022-09-28T03:28:36.494Z,8.05
2022-09-28T03:31:02.985Z,8.05
2022-09-28T03:33:29.773Z,8.03
2022-09-28T03:35:56.103Z,8.05
2022-09-28T03:38:22.498Z,8.07
2022-09-28T03:40:58.964Z,8.08
2022-09-28T03:43:26.558Z,8.07
2022-09-28T03:45:59.707Z,8.06
2022-09-28T03:48:32.946Z,8.10
2022-09-28T03:51:07.330Z,8.11
2022-09-28T03:53:33.912Z,8.09
2022-09-28T03:56:04.521Z,8.09
2022-09-28T03:58:31.256Z,8.10
2022-09-28T04:01:06.488Z,8.15
2022-09-28T04:03:33.419Z,8.14
2022-09-28T04:06:00.285Z,8.13
2022-09-28T04:08:27.535Z,8.12
2022-09-28T04:10:58.415Z,8.14
2022-09-28T04:13:25.991Z,8.17
2022-09-28T04:15:55.175Z,8.22
2022-09-28T04:18:22.420Z,8.15
2022-09-28T04:20:59.715Z,8.24
2022-09-28T04:23:28.060Z,8.20
2022-09-28T04:25:54.580Z,8.19
2022-09-28T04:28:40.444Z,8.19
2022-09-28T04:31:16.475Z,8.27
2022-09-28T04:33:43.308Z,8.26
2022-09-28T04:36:10.915Z,8.24
2022-09-28T04:38:52.426Z,8.24
2022-09-28T04:41:22.765Z,8.19
2022-09-28T04:43:49.814Z,8.26
2022-09-28T04:46:16.924Z,8.18
2022-09-28T04:48:43.755Z,8.28
2022-09-28T04:51:10.308Z,8.31
2022-09-28T04:53:36.716Z,8.22
2022-09-28T04:56:05.905Z,8.23
2022-09-28T04:58:34.622Z,8.22
2022-09-28T05:01:04.393Z,8.27
2022-09-28T05:03:30.923Z,8.20
2022-09-28T05:05:57.762Z,8.24
2022-09-28T05:08:24.432Z,8.16
2022-09-28T05:10:59.915Z,8.21
2022-09-28T05:13:27.702Z,8.17
2022-09-28T05:15:59.717Z,8.12
2022-09-28T05:18:28.628Z,8.08
2022-09-28T05:20:54.929Z,8.08
2022-09-28T05:23:21.684Z,8.09
2022-09-28T05:25:48.074Z,8.13
2022-09-28T05:28:14.496Z,8.12
2022-09-28T05:30:41.393Z,8.11
2022-09-28T05:33:08.878Z,8.10
2022-09-28T05:35:36.086Z,8.19
2022-09-28T05:38:04.989Z,8.21
2022-09-28T05:40:32.086Z,8.10
2022-09-28T05:43:00.332Z,8.02
2022-09-28T05:45:27.414Z,8.04
2022-09-28T05:47:54.591Z,7.99
2022-09-28T05:50:21.107Z,8.05
2022-09-28T05:52:48.228Z,8.01
2022-09-28T05:55:14.548Z,7.91
2022-09-28T05:57:40.842Z,7.87
2022-09-28T06:00:09.494Z,7.85
2022-09-28T06:02:35.862Z,7.88
2022-09-28T06:05:02.208Z,7.88
2022-09-28T06:07:28.958Z,7.96
2022-09-28T06:09:56.059Z,8.20
2022-09-28T06:12:22.411Z,8.18
2022-09-28T06:14:49.113Z,8.25
2022-09-28T06:17:15.888Z,8.01
2022-09-28T06:19:42.194Z,8.06
2022-09-28T06:22:08.905Z,8.02
2022-09-28T06:24:35.711Z,7.92
2022-09-28T06:27:02.042Z,7.97
2022-09-28T06:29:29.158Z,7.90
2022-09-28T06:31:56.475Z,7.94
2022-09-28T06:34:24.651Z,7.99
2022-09-28T06:36:51.268Z,7.96
2022-09-28T06:39:18.162Z,7.85
2022-09-28T06:41:44.475Z,7.83
2022-09-28T06:44:10.886Z,7.79
2022-09-28T06:46:39.334Z,7.84
2022-09-28T06:49:09.145Z,7.88
2022-09-28T06:51:36.603Z,7.82
2022-09-28T06:54:04.175Z,7.82
2022-09-28T06:56:32.941Z,7.82
2022-09-28T06:58:59.533Z,7.95
2022-09-28T07:01:26.294Z,7.98
2022-09-28T07:03:55.623Z,7.93
2022-09-28T07:06:24.069Z,7.83
2022-09-28T07:09:00.949Z,7.83
2022-09-28T07:11:39.545Z,7.80
2022-09-28T07:14:07.514Z,7.76
2022-09-28T07:16:56.542Z,7.79
2022-09-28T07:19:20.716Z,7.87
2022-09-28T07:21:53.777Z,7.91
2022-09-28T07:24:23.742Z,7.97
2022-09-28T07:26:50.932Z,8.00
2022-09-28T07:29:17.235Z,8.03
2022-09-28T07:31:43.943Z,8.01
2022-09-28T07:34:11.039Z,7.95
2022-09-28T07:36:38.981Z,7.95
2022-09-28T07:39:05.728Z,8.03
2022-09-28T07:41:32.475Z,8.12
2022-09-28T07:44:05.671Z,8.13
2022-09-28T07:46:33.832Z,8.19
2022-09-28T07:49:00.327Z,7.97
2022-09-28T07:51:27.292Z,8.14
2022-09-28T07:53:56.464Z,8.25
2022-09-28T07:56:23.319Z,8.42
2022-09-28T07:58:49.828Z,8.36
2022-09-28T08:01:16.618Z,8.49
2022-09-28T08:03:47.789Z,8.65
2022-09-28T08:06:17.523Z,8.79
2022-09-28T08:08:44.591Z,8.82
2022-09-28T08:11:13.441Z,8.90
2022-09-28T08:13:40.636Z,8.86
2022-09-28T08:16:08.332Z,8.97
2022-09-28T08:18:35.523Z,9.06
2022-09-28T08:21:22.932Z,9.68
2022-09-28T08:23:49.368Z,9.13
2022-09-28T08:26:16.709Z,9.41
2022-09-28T08:28:44.992Z,9.49
2022-09-28T08:31:11.462Z,9.27
2022-09-28T08:33:39.459Z,9.14
2022-09-28T08:36:06.076Z,9.40
2022-09-28T08:38:32.931Z,9.45
2022-09-28T08:41:21.645Z,8.78
2022-09-28T08:43:50.911Z,9.34
2022-09-28T08:46:23.898Z,9.50
2022-09-28T08:49:25.315Z,9.40
2022-09-28T08:52:14.678Z,9.81
2022-09-28T08:54:56.450Z,10.17
2022-09-28T08:57:41.839Z,10.09
2022-09-28T09:00:18.188Z,10.13
2022-09-28T09:02:46.787Z,10.65
2022-09-28T09:05:17.003Z,10.21
2022-09-28T09:07:58.770Z,9.38
2022-09-28T09:10:45.945Z,9.57
2022-09-28T09:13:34.199Z,8.98
2022-09-28T09:16:09.903Z,9.59
2022-09-28T09:18:42.607Z,9.92
2022-09-28T09:21:25.495Z,10.23
2022-09-28T09:23:58.859Z,9.05
2022-09-28T09:26:39.132Z,9.58
2022-09-28T09:29:44.302Z,9.85
2022-09-28T09:32:16.613Z,10.22
2022-09-28T09:35:01.516Z,10.43
2022-09-28T09:37:58.467Z,10.43
2022-09-28T09:40:58.943Z,10.50
2022-09-28T09:43:45.972Z,10.59
2022-09-28T09:46:20.319Z,10.77
2022-09-28T09:48:52.682Z,10.72
2022-09-28T09:51:29.061Z,10.74
2022-09-28T09:54:01.981Z,10.10
2022-09-28T09:56:38.451Z,9.76
2022-09-28T09:59:18.629Z,9.95
2022-09-28T10:01:46.338Z,9.86
2022-09-28T10:04:34.848Z,10.15
2022-09-28T10:07:06.913Z,10.43
2022-09-28T10:09:45.643Z,10.29
2022-09-28T10:12:19.260Z,9.33
2022-09-28T10:14:47.004Z,9.42
2022-09-28T10:17:19.681Z,9.40
2022-09-28T10:19:46.166Z,9.82
2022-09-28T10:22:19.203Z,9.83
2022-09-28T10:24:56.754Z,9.81
2022-09-28T10:27:34.096Z,9.99
2022-09-28T10:30:09.333Z,10.17
2022-09-28T10:32:45.195Z,10.46
2022-09-28T10:35:40.723Z,10.86
2022-09-28T10:38:15.776Z,10.77
2022-09-28T10:40:46.675Z,10.97
2022-09-28T10:43:29.126Z,10.76
2022-09-28T10:46:05.202Z,10.55
2022-09-28T10:48:48.271Z,9.50
2022-09-28T10:51:15.315Z,10.11
2022-09-28T10:53:41.857Z,10.85
2022-09-28T10:56:20.788Z,10.90
2022-09-28T10:58:47.183Z,11.48
2022-09-28T11:01:19.080Z,11.59
2022-09-28T11:03:54.872Z,11.89
2022-09-28T11:06:27.288Z,11.93
2022-09-28T11:08:57.349Z,12.34
2022-09-28T11:11:24.669Z,12.14
2022-09-28T11:13:54.006Z,12.21
2022-09-28T11:16:24.935Z,11.83
2022-09-28T11:18:51.630Z,11.57
2022-09-28T11:21:32.500Z,11.70
2022-09-28T11:24:06.393Z,11.91
2022-09-28T11:26:44.983Z,11.61
2022-09-28T11:29:24.432Z,11.59
2022-09-28T11:31:52.276Z,11.66
2022-09-28T11:34:36.449Z,11.61
2022-09-28T11:37:36.999Z,11.45
2022-09-28T11:40:24.835Z,11.27
2022-09-28T11:45:59.604Z,11.96
2022-09-28T11:48:33.860Z,11.87
2022-09-28T11:51:08.830Z,12.18
2022-09-28T11:53:41.611Z,12.44
2022-09-28T11:56:34.502Z,12.66
2022-09-28T11:59:10.994Z,12.44
2022-09-28T12:01:52.876Z,11.48
2022-09-28T12:04:37.403Z,12.15
2022-09-28T12:07:12.332Z,11.82
2022-09-28T12:09:50.431Z,11.40
2022-09-28T12:13:01.001Z,12.08
2022-09-28T12:16:10.344Z,12.50
2022-09-28T12:18:43.993Z,11.50
2022-09-28T12:21:25.955Z,11.48
2022-09-28T12:24:30.467Z,11.66
2022-09-28T12:27:05.057Z,11.82
2022-09-28T12:29:48.010Z,11.52
2022-09-28T12:32:37.559Z,11.04
2022-09-28T12:35:13.317Z,10.54
2022-09-28T12:38:15.003Z,10.68
2022-09-28T12:40:53.292Z,10.79
2022-09-28T12:43:28.888Z,10.96
2022-09-28T12:46:12.090Z,10.37
2022-09-28T12:49:47.265Z,10.31
2022-09-28T12:51:51.551Z,10.57
2022-09-28T12:54:35.404Z,11.01
2022-09-28T12:57:26.863Z,10.27
2022-09-28T13:00:22.797Z,11.08
2022-09-28T13:02:58.742Z,10.85
2022-09-28T13:05:37.292Z,11.05
2022-09-28T13:08:10.644Z,11.33
2022-09-28T13:11:09.027Z,12.14
2022-09-28T13:13:57.362Z,11.56
2022-09-28T13:16:40.216Z,12.00
2022-09-28T13:19:32.068Z,11.91
2022-09-28T13:22:38.180Z,11.45
2022-09-28T13:25:15.473Z,11.03
2022-09-28T13:27:48.449Z,11.00
2022-09-28T13:30:18.320Z,10.96
2022-09-28T13:32:47.284Z,10.79
2022-09-28T13:35:20.511Z,11.24
2022-09-28T13:37:49.085Z,11.82
2022-09-28T13:40:16.169Z,12.12
2022-09-28T13:42:52.147Z,10.93
2022-09-28T13:45:22.254Z,11.25
2022-09-28T13:47:53.301Z,10.90
2022-09-28T13:50:38.478Z,10.75
2022-09-28T13:53:23.932Z,10.82
2022-09-28T13:56:25.376Z,11.10
2022-09-28T13:59:10.405Z,11.17
2022-09-28T14:01:41.756Z,10.17
2022-09-28T14:04:21.025Z,10.26
2022-09-28T14:06:57.400Z,10.22
2022-09-28T14:09:26.777Z,10.38
2022-09-28T14:12:01.946Z,10.21
2022-09-28T14:14:32.181Z,10.39
2022-09-28T14:17:23.442Z,10.39
2022-09-28T14:20:09.036Z,10.32
2022-09-28T14:22:55.080Z,9.77
2022-09-28T14:25:32.005Z,9.48
2022-09-28T14:28:27.361Z,9.66
2022-09-28T14:30:56.674Z,9.48
2022-09-28T14:33:32.838Z,9.41
2022-09-28T14:36:06.299Z,9.45
2022-09-28T14:38:56.367Z,9.44
2022-09-28T14:41:28.675Z,9.52
2022-09-28T14:44:08.419Z,9.48
2022-09-28T14:46:38.586Z,9.43
2022-09-28T14:49:17.606Z,9.28
2022-09-28T14:51:53.362Z,9.49
2022-09-28T14:54:22.002Z,9.43
2022-09-28T14:56:57.285Z,9.35
2022-09-28T14:59:38.183Z,9.34
2022-09-28T15:02:17.303Z,9.14
2022-09-28T15:04:54.279Z,9.05
2022-09-28T15:07:27.380Z,9.20
2022-09-28T15:09:56.435Z,9.18
2022-09-28T15:12:28.468Z,9.11
2022-09-28T15:15:02.546Z,9.17
2022-09-28T15:17:39.278Z,8.94
2022-09-28T15:20:20.905Z,8.92
2022-09-28T15:22:49.614Z,8.93
2022-09-28T15:25:19.869Z,8.67
2022-09-28T15:27:52.875Z,8.61
2022-09-28T15:30:31.708Z,8.76
2022-09-28T15:33:18.728Z,8.70
2022-09-28T15:36:02.055Z,8.67
2022-09-28T15:38:29.948Z,8.47
2022-09-28T15:40:57.343Z,8.56
2022-09-28T15:43:26.879Z,8.55
2022-09-28T15:46:07.335Z,8.53
2022-09-28T15:48:55.183Z,8.39
2022-09-28T15:51:24.526Z,8.48
2022-09-28T15:53:59.763Z,8.39
2022-09-28T15:56:27.503Z,8.37
2022-09-28T15:59:29.939Z,8.42
2022-09-28T16:02:15.530Z,8.47
2022-09-28T16:04:54.689Z,8.34
2022-09-28T16:07:25.496Z,8.44
2022-09-28T16:10:13.323Z,8.42
2022-09-28T16:12:40.092Z,8.42
2022-09-28T16:15:15.290Z,8.43
2022-09-28T16:17:41.953Z,8.48
2022-09-28T16:20:21.114Z,8.42
2022-09-28T16:22:47.795Z,8.50
2022-09-28T16:25:22.637Z,8.38
2022-09-28T16:27:48.882Z,8.36
2022-09-28T16:30:25.411Z,8.38
2022-09-28T16:32:57.652Z,8.26
2022-09-28T16:35:32.468Z,8.28
2022-09-28T16:38:01.581Z,8.35
2022-09-28T16:40:28.660Z,8.30
2022-09-28T16:43:00.067Z,8.22
2022-09-28T16:45:26.612Z,8.26
2022-09-28T16:47:55.971Z,8.39
2022-09-28T16:50:24.185Z,8.34
2022-09-28T16:53:32.151Z,8.34
2022-09-28T16:55:59.625Z,8.09
2022-09-28T16:58:26.684Z,8.09
2022-09-28T17:00:54.544Z,7.95
2022-09-28T17:03:23.292Z,8.01
2022-09-28T17:05:50.905Z,7.89
2022-09-28T17:08:20.662Z,7.87
2022-09-28T17:13:39.572Z,7.85
2022-09-28T17:16:12.177Z,7.87
2022-09-28T17:18:40.367Z,7.87
2022-09-28T17:21:12.095Z,7.83
2022-09-28T17:23:38.538Z,7.73
2022-09-28T17:26:06.208Z,7.65
2022-09-28T17:28:35.134Z,7.57
2022-09-28T17:31:02.900Z,7.55
2022-09-28T17:33:30.058Z,7.52
2022-09-28T17:36:02.189Z,7.51
2022-09-28T17:38:28.670Z,7.44
2022-09-28T17:40:55.780Z,7.40
2022-09-28T17:43:22.360Z,7.45
2022-09-28T17:45:50.580Z,7.44
2022-09-28T17:48:23.667Z,7.35
2022-09-28T17:50:50.612Z,7.27
2022-09-28T17:53:17.197Z,7.30
2022-09-28T17:55:44.044Z,7.31
2022-09-28T17:58:22.775Z,7.34
2022-09-28T18:00:51.353Z,7.35
2022-09-28T18:03:20.592Z,7.29
2022-09-28T18:05:49.689Z,7.26
2022-09-28T18:08:18.670Z,7.22
2022-09-28T18:10:46.732Z,7.20
2022-09-28T18:13:14.130Z,7.19
2022-09-28T18:15:40.751Z,7.23
2022-09-28T18:18:10.471Z,7.34
2022-09-28T18:20:39.329Z,7.42
2022-09-28T18:23:05.632Z,7.31
2022-09-28T18:25:31.971Z,7.15
2022-09-28T18:28:00.257Z,6.92
2022-09-28T18:30:27.990Z,6.96
2022-09-28T18:32:54.584Z,7.01
2022-09-28T18:35:23.145Z,7.00
2022-09-28T18:37:50.244Z,7.00
2022-09-28T18:40:17.041Z,6.96
2022-09-28T18:42:44.045Z,7.00
2022-09-28T18:45:11.168Z,6.96
2022-09-28T18:47:38.802Z,6.91
2022-09-28T18:50:06.271Z,6.85
2022-09-28T18:52:36.426Z,6.79
2022-09-28T18:55:03.003Z,6.77
2022-09-28T18:57:29.760Z,6.89
2022-09-28T18:59:56.062Z,6.97
2022-09-28T19:02:22.908Z,7.04
2022-09-28T19:04:49.388Z,7.10
2022-09-28T19:07:16.794Z,6.92
2022-09-28T19:09:44.527Z,7.06
2022-09-28T19:12:11.698Z,7.08
2022-09-28T19:14:38.119Z,7.12
2022-09-28T19:17:04.959Z,6.95
2022-09-28T19:19:31.875Z,6.95
2022-09-28T19:21:59.256Z,6.92
2022-09-28T19:24:25.643Z,6.92
2022-09-28T19:26:55.050Z,7.09
2022-09-28T19:29:22.007Z,7.09
2022-09-28T19:31:49.540Z,7.05
2022-09-28T19:34:16.045Z,6.99
2022-09-28T19:36:43.207Z,6.91
2022-09-28T19:39:13.830Z,6.89
2022-09-28T19:42:00.794Z,6.97
2022-09-28T19:44:28.626Z,6.94
2022-09-28T19:47:06.804Z,6.93
2022-09-28T19:49:37.351Z,7.00
2022-09-28T19:52:13.186Z,6.95
2022-09-28T19:54:44.960Z,6.83
2022-09-28T19:57:14.653Z,6.81
2022-09-28T19:59:41.511Z,6.81
2022-09-28T20:02:10.114Z,6.78
2022-09-28T20:04:36.527Z,6.82
2022-09-28T20:07:04.682Z,6.82
2022-09-28T20:09:31.903Z,6.85
2022-09-28T20:11:58.311Z,6.84
2022-09-28T20:14:26.411Z,6.83
2022-09-28T20:16:57.094Z,6.85
2022-09-28T20:19:23.506Z,6.92
2022-09-28T20:21:50.958Z,7.04
2022-09-28T20:24:17.346Z,7.11
2022-09-28T20:26:44.516Z,7.13
2022-09-28T20:29:11.583Z,6.95
2022-09-28T20:31:37.989Z,6.81
2022-09-28T20:34:05.772Z,6.82
2022-09-28T20:36:33.302Z,6.85
2022-09-28T20:39:04.010Z,6.88
2022-09-28T20:41:37.072Z,7.05
2022-09-28T20:44:06.119Z,7.23
2022-09-28T20:46:34.582Z,7.21
2022-09-28T20:49:01.758Z,7.13
2022-09-28T20:51:28.307Z,7.18
2022-09-28T20:53:56.288Z,7.24
2022-09-28T20:56:29.103Z,7.29
2022-09-28T20:58:55.672Z,7.26
2022-09-28T21:01:24.843Z,7.19
2022-09-28T21:03:56.804Z,7.20
2022-09-28T21:06:25.844Z,7.09
2022-09-28T21:08:52.592Z,7.11
2022-09-28T21:11:22.627Z,7.02
2022-09-28T21:13:52.681Z,6.83
2022-09-28T21:16:19.321Z,6.81
2022-09-28T21:18:45.678Z,6.77
2022-09-28T21:21:14.733Z,6.74
2022-09-28T21:23:42.991Z,6.45
2022-09-28T21:26:24.510Z,6.30
2022-09-28T21:29:04.727Z,6.19
2022-09-28T21:31:39.628Z,6.22
2022-09-28T21:34:06.819Z,6.17
2022-09-28T21:36:43.236Z,6.11
2022-09-28T21:39:10.611Z,6.14
2022-09-28T21:41:37.413Z,6.13
2022-09-28T21:44:03.771Z,6.09
2022-09-28T21:46:34.281Z,6.09
2022-09-28T21:49:02.470Z,6.02
2022-09-28T21:51:30.035Z,5.91
2022-09-28T21:53:56.655Z,5.89
2022-09-28T21:56:23.065Z,5.89
2022-09-28T21:58:50.677Z,5.81
2022-09-28T22:01:19.682Z,5.76
2022-09-28T22:03:55.518Z,5.69
2022-09-28T22:06:24.342Z,5.65
2022-09-28T22:08:50.995Z,5.60
2022-09-28T22:11:20.421Z,5.58
2022-09-28T22:13:49.316Z,5.67
2022-09-28T22:16:18.081Z,5.61
2022-09-28T22:18:45.692Z,5.55
2022-09-28T22:21:16.379Z,5.49
2022-09-28T22:23:43.704Z,5.47
2022-09-28T22:26:11.617Z,5.52
2022-09-28T22:28:39.211Z,5.62
2022-09-28T22:31:06.146Z,5.77
2022-09-28T22:33:32.608Z,5.83
2022-09-28T22:35:59.453Z,5.70
2022-09-28T22:38:25.815Z,5.62
2022-09-28T22:40:54.897Z,5.65
2022-09-28T22:43:25.804Z,5.67
2022-09-28T22:46:12.950Z,5.63
2022-09-28T22:48:40.439Z,5.78
2022-09-28T22:51:07.754Z,5.73
2022-09-28T22:53:35.023Z,5.63
2022-09-28T22:56:05.487Z,5.52
2022-09-28T22:58:33.504Z,5.54
2022-09-28T23:01:15.167Z,5.43
2022-09-28T23:03:43.102Z,5.40
2022-09-28T23:06:10.787Z,5.41
2022-09-28T23:08:37.746Z,5.43
2022-09-28T23:11:05.560Z,5.39
2022-09-28T23:13:32.007Z,5.40
2022-09-28T23:16:03.467Z,5.41
2022-09-28T23:18:32.520Z,5.49
2022-09-28T23:21:01.592Z,5.55
2022-09-28T23:23:28.631Z,5.56
2022-09-28T23:25:56.235Z,5.72
2022-09-28T23:28:24.395Z,5.81
2022-09-28T23:30:51.540Z,5.74
2022-09-28T23:33:20.624Z,5.71
2022-09-28T23:35:47.153Z,5.75
2022-09-28T23:38:16.571Z,5.78
2022-09-28T23:40:43.616Z,5.89
2022-09-28T23:43:09.978Z,5.82
2022-09-28T23:45:36.324Z,5.83
2022-09-28T23:48:03.391Z,5.88
2022-09-28T23:50:29.710Z,5.84
2022-09-28T23:52:56.108Z,5.81
2022-09-28T23:55:23.037Z,5.75
2022-09-28T23:57:49.447Z,5.77
